VTPH/HHQ METAR and TAF weather

Enter ICAO airport designator
Station Type Date Time Source
VTPH METAR 2022/11/30 11:00 UTC NOAA

VTPH 301100Z VRB02KT 9999 FEW030 30/25 Q1008 NOSIG


Station Type Date Time Source
VTPH Decoded METAR 2022/11/30 11:00 UTC NOAA

Hua Hin, Thailand (VTPH) 12-35N 099-57E 6M
Nov 30, 2022 - 06:00 AM EST / 2022.11.30 1100 UTC
Wind: Variable at 2 MPH (2 KT):0
Visibility: greater than 7 mile(s):0
Sky conditions: mostly clear
Temperature: 86 F (30 C)
Heat index: 96.8 F (36.0 C):1
Dew Point: 77 F (25 C)
Relative Humidity: 74%
Pressure (altimeter): 29.77 in. Hg (1008 hPa)
ob: VTPH 301100Z VRB02KT 9999 FEW030 30/25 Q1008 NOSIG
cycle: 11

Station Type Date Time Source
VTPH TAF 2022/11/30 12:00 UTC NOAA

TAF VTPH 301100Z 3012/0112 00000KT 9999 FEW020
BECMG 0102/0104 13006KT

Example: see airport list